Terminal Aerodrome Forecast
Issued by NWS Lake Charles, LA

Home | Current Version | Previous Version | Text Only | Print | Product List | Glossary On
Versions: 1 2 3 4 5 6 7 8 9 10 11 12
000
FTUS44 KLCH 211125
TAFLCH
TAF
KLCH 211125Z 2112/2212 VRB03KT P6SM VCSH FEW025 SCT250
     FM211500 09005KT P6SM FEW035
     FM211800 13008KT P6SM VCSH SCT035
     FM220000 13003KT P6SM BKN250=

USA.gov is the U.S. government's official web portal to all federal, state and local government web resources and services.